sensor_id;sensor_type;location;lat;lon;timestamp;P1;durP1;ratioP1;P2;durP2;ratioP2
7527;SDS011;3805;49.006;8.514;2023-03-15T00:00:43;4.37;;;3.87;;
7527;SDS011;3805;49.006;8.514;2023-03-15T00:03:31;5.00;;;4.00;;
7527;SDS011;3805;49.006;8.514;2023-03-15T00:06:23;7.40;;;4.10;;
7527;SDS011;3805;49.006;8.514;2023-03-15T00:09:12;5.07;;;4.30;;
7527;SDS011;3805;49.006;8.514;2023-03-15T00:12:00;4.30;;;3.77;;
7527;SDS011;3805;49.006;8.514;2023-03-15T00:14:49;5.13;;;4.20;;
7527;SDS011;3805;49.006;8.514;2023-03-15T00:17:40;7.43;;;4.30;;
7527;SDS011;3805;49.006;8.514;2023-03-15T00:20:28;7.20;;;4.20;;
7527;SDS011;3805;49.006;8.514;2023-03-15T00:23:17;4.73;;;3.43;;
7527;SDS011;3805;49.006;8.514;2023-03-15T00:26:06;4.77;;;4.27;;
7527;SDS011;3805;49.006;8.514;2023-03-15T00:28:55;4.80;;;4.40;;
7527;SDS011;3805;49.006;8.514;2023-03-15T00:31:43;4.40;;;4.00;;
7527;SDS011;3805;49.006;8.514;2023-03-15T00:34:33;5.57;;;3.97;;
7527;SDS011;3805;49.006;8.514;2023-03-15T00:37:21;4.53;;;4.13;;
7527;SDS011;3805;49.006;8.514;2023-03-15T00:40:11;4.37;;;3.77;;
7527;SDS011;3805;49.006;8.514;2023-03-15T00:43:00;4.10;;;3.20;;
7527;SDS011;3805;49.006;8.514;2023-03-15T00:45:49;6.07;;;4.17;;
7527;SDS011;3805;49.006;8.514;2023-03-15T00:48:37;9.23;;;4.60;;
7527;SDS011;3805;49.006;8.514;2023-03-15T00:51:28;5.20;;;4.40;;
7527;SDS011;3805;49.006;8.514;2023-03-15T00:54:16;4.43;;;4.03;;
7527;SDS011;3805;49.006;8.514;2023-03-15T00:57:05;4.53;;;4.13;;
7527;SDS011;3805;49.006;8.514;2023-03-15T00:59:53;4.90;;;3.80;;
7527;SDS011;3805;49.006;8.514;2023-03-15T01:02:42;7.97;;;3.97;;
7527;SDS011;3805;49.006;8.514;2023-03-15T01:05:31;4.70;;;3.30;;
7527;SDS011;3805;49.006;8.514;2023-03-15T01:08:21;4.47;;;4.07;;
7527;SDS011;3805;49.006;8.514;2023-03-15T01:11:10;4.73;;;4.07;;
7527;SDS011;3805;49.006;8.514;2023-03-15T01:14:00;6.03;;;3.50;;
7527;SDS011;3805;49.006;8.514;2023-03-15T01:16:49;4.33;;;3.83;;
7527;SDS011;3805;49.006;8.514;2023-03-15T01:19:38;8.20;;;4.00;;
7527;SDS011;3805;49.006;8.514;2023-03-15T01:22:26;3.40;;;3.10;;
7527;SDS011;3805;49.006;8.514;2023-03-15T01:25:16;5.73;;;3.10;;
7527;SDS011;3805;49.006;8.514;2023-03-15T01:28:05;5.00;;;3.70;;
7527;SDS011;3805;49.006;8.514;2023-03-15T01:30:54;5.50;;;3.40;;
7527;SDS011;3805;49.006;8.514;2023-03-15T01:33:45;3.70;;;3.20;;
7527;SDS011;3805;49.006;8.514;2023-03-15T01:36:34;3.40;;;3.20;;
7527;SDS011;3805;49.006;8.514;2023-03-15T01:39:22;6.30;;;3.50;;
7527;SDS011;3805;49.006;8.514;2023-03-15T01:42:12;3.93;;;3.53;;
7527;SDS011;3805;49.006;8.514;2023-03-15T01:45:01;3.50;;;3.20;;
7527;SDS011;3805;49.006;8.514;2023-03-15T01:47:49;3.57;;;3.27;;
7527;SDS011;3805;49.006;8.514;2023-03-15T01:50:39;4.97;;;4.07;;
7527;SDS011;3805;49.006;8.514;2023-03-15T01:53:28;3.90;;;3.53;;
7527;SDS011;3805;49.006;8.514;2023-03-15T01:56:17;3.90;;;3.47;;
7527;SDS011;3805;49.006;8.514;2023-03-15T01:59:08;4.10;;;3.70;;
7527;SDS011;3805;49.006;8.514;2023-03-15T02:02:00;4.20;;;3.70;;
7527;SDS011;3805;49.006;8.514;2023-03-15T02:04:50;7.50;;;4.53;;
7527;SDS011;3805;49.006;8.514;2023-03-15T02:07:41;4.23;;;3.60;;
7527;SDS011;3805;49.006;8.514;2023-03-15T02:10:36;3.53;;;3.23;;
7527;SDS011;3805;49.006;8.514;2023-03-15T02:13:25;3.57;;;3.27;;
7527;SDS011;3805;49.006;8.514;2023-03-15T02:16:18;3.10;;;2.80;;
7527;SDS011;3805;49.006;8.514;2023-03-15T02:19:08;3.90;;;3.07;;
7527;SDS011;3805;49.006;8.514;2023-03-15T02:22:07;3.87;;;3.10;;
7527;SDS011;3805;49.006;8.514;2023-03-15T02:25:01;6.43;;;3.27;;
7527;SDS011;3805;49.006;8.514;2023-03-15T02:27:56;3.20;;;3.00;;
7527;SDS011;3805;49.006;8.514;2023-03-15T02:30:45;4.90;;;3.37;;
7527;SDS011;3805;49.006;8.514;2023-03-15T02:33:35;3.73;;;3.13;;
7527;SDS011;3805;49.006;8.514;2023-03-15T02:36:28;3.50;;;3.20;;
7527;SDS011;3805;49.006;8.514;2023-03-15T02:39:18;4.83;;;3.47;;
7527;SDS011;3805;49.006;8.514;2023-03-15T02:42:08;4.93;;;3.50;;
7527;SDS011;3805;49.006;8.514;2023-03-15T02:44:58;3.83;;;3.33;;
7527;SDS011;3805;49.006;8.514;2023-03-15T02:47:46;3.27;;;3.03;;
7527;SDS011;3805;49.006;8.514;2023-03-15T02:50:36;4.33;;;3.93;;
7527;SDS011;3805;49.006;8.514;2023-03-15T02:53:24;3.80;;;3.50;;
7527;SDS011;3805;49.006;8.514;2023-03-15T02:56:13;4.80;;;3.67;;
7527;SDS011;3805;49.006;8.514;2023-03-15T02:59:02;8.50;;;3.80;;
7527;SDS011;3805;49.006;8.514;2023-03-15T03:01:52;4.20;;;3.80;;
7527;SDS011;3805;49.006;8.514;2023-03-15T03:04:41;5.23;;;3.90;;
7527;SDS011;3805;49.006;8.514;2023-03-15T03:07:29;3.73;;;2.60;;
7527;SDS011;3805;49.006;8.514;2023-03-15T03:10:18;3.63;;;3.33;;
7527;SDS011;3805;49.006;8.514;2023-03-15T03:13:07;5.17;;;4.67;;
7527;SDS011;3805;49.006;8.514;2023-03-15T03:15:55;4.20;;;3.90;;
7527;SDS011;3805;49.006;8.514;2023-03-15T03:18:46;5.37;;;4.43;;
7527;SDS011;3805;49.006;8.514;2023-03-15T03:21:35;4.50;;;4.10;;
7527;SDS011;3805;49.006;8.514;2023-03-15T03:24:24;5.27;;;4.77;;
7527;SDS011;3805;49.006;8.514;2023-03-15T03:27:13;4.40;;;3.90;;
7527;SDS011;3805;49.006;8.514;2023-03-15T03:30:02;6.17;;;4.00;;
7527;SDS011;3805;49.006;8.514;2023-03-15T03:32:51;4.70;;;4.03;;
7527;SDS011;3805;49.006;8.514;2023-03-15T03:35:42;4.50;;;3.90;;
7527;SDS011;3805;49.006;8.514;2023-03-15T03:38:30;4.53;;;4.13;;
7527;SDS011;3805;49.006;8.514;2023-03-15T03:41:19;4.70;;;4.20;;
7527;SDS011;3805;49.006;8.514;2023-03-15T03:44:08;5.30;;;4.43;;
7527;SDS011;3805;49.006;8.514;2023-03-15T03:46:56;5.67;;;5.10;;
7527;SDS011;3805;49.006;8.514;2023-03-15T03:49:44;4.83;;;4.37;;
7527;SDS011;3805;49.006;8.514;2023-03-15T03:52:34;6.10;;;4.63;;
7527;SDS011;3805;49.006;8.514;2023-03-15T03:55:23;7.90;;;6.07;;
7527;SDS011;3805;49.006;8.514;2023-03-15T03:58:11;8.37;;;5.40;;
7527;SDS011;3805;49.006;8.514;2023-03-15T04:01:00;7.07;;;5.20;;
7527;SDS011;3805;49.006;8.514;2023-03-15T04:03:50;6.00;;;4.57;;
7527;SDS011;3805;49.006;8.514;2023-03-15T04:06:38;6.30;;;5.13;;
7527;SDS011;3805;49.006;8.514;2023-03-15T04:09:33;4.73;;;4.23;;
7527;SDS011;3805;49.006;8.514;2023-03-15T04:12:23;6.60;;;5.20;;
7527;SDS011;3805;49.006;8.514;2023-03-15T04:15:12;9.00;;;4.60;;
7527;SDS011;3805;49.006;8.514;2023-03-15T04:18:00;7.27;;;5.30;;
7527;SDS011;3805;49.006;8.514;2023-03-15T04:20:51;7.00;;;4.87;;
7527;SDS011;3805;49.006;8.514;2023-03-15T04:23:40;8.80;;;4.90;;
7527;SDS011;3805;49.006;8.514;2023-03-15T04:26:30;5.83;;;4.90;;
7527;SDS011;3805;49.006;8.514;2023-03-15T04:29:20;7.30;;;5.17;;
7527;SDS011;3805;49.006;8.514;2023-03-15T04:32:09;4.83;;;4.43;;
7527;SDS011;3805;49.006;8.514;2023-03-15T04:34:58;4.80;;;4.40;;
7527;SDS011;3805;49.006;8.514;2023-03-15T04:37:48;4.93;;;4.30;;
7527;SDS011;3805;49.006;8.514;2023-03-15T04:40:37;7.23;;;4.93;;
7527;SDS011;3805;49.006;8.514;2023-03-15T04:43:30;5.47;;;4.80;;
7527;SDS011;3805;49.006;8.514;2023-03-15T04:46:18;6.30;;;5.23;;
7527;SDS011;3805;49.006;8.514;2023-03-15T04:49:10;6.20;;;4.60;;
7527;SDS011;3805;49.006;8.514;2023-03-15T04:51:59;9.73;;;5.07;;
7527;SDS011;3805;49.006;8.514;2023-03-15T04:54:47;6.37;;;4.33;;
7527;SDS011;3805;49.006;8.514;2023-03-15T04:57:36;7.60;;;5.20;;
7527;SDS011;3805;49.006;8.514;2023-03-15T05:00:26;7.00;;;4.90;;
7527;SDS011;3805;49.006;8.514;2023-03-15T05:03:14;4.87;;;4.47;;
7527;SDS011;3805;49.006;8.514;2023-03-15T05:06:03;5.43;;;4.47;;
7527;SDS011;3805;49.006;8.514;2023-03-15T05:08:54;7.60;;;5.27;;
7527;SDS011;3805;49.006;8.514;2023-03-15T05:11:43;6.60;;;4.63;;
7527;SDS011;3805;49.006;8.514;2023-03-15T05:14:32;6.50;;;4.60;;
7527;SDS011;3805;49.006;8.514;2023-03-15T05:17:22;5.17;;;4.40;;
7527;SDS011;3805;49.006;8.514;2023-03-15T05:20:11;5.47;;;4.87;;
7527;SDS011;3805;49.006;8.514;2023-03-15T05:23:00;5.67;;;5.03;;
7527;SDS011;3805;49.006;8.514;2023-03-15T05:25:49;6.57;;;4.37;;
7527;SDS011;3805;49.006;8.514;2023-03-15T05:28:40;6.53;;;4.30;;
7527;SDS011;3805;49.006;8.514;2023-03-15T05:31:31;7.43;;;5.20;;
7527;SDS011;3805;49.006;8.514;2023-03-15T05:34:24;4.87;;;4.40;;
7527;SDS011;3805;49.006;8.514;2023-03-15T05:37:13;6.60;;;5.90;;
7527;SDS011;3805;49.006;8.514;2023-03-15T05:40:01;5.40;;;4.90;;
7527;SDS011;3805;49.006;8.514;2023-03-15T05:42:54;7.30;;;5.73;;
7527;SDS011;3805;49.006;8.514;2023-03-15T05:45:42;6.57;;;5.03;;
7527;SDS011;3805;49.006;8.514;2023-03-15T05:48:33;6.20;;;4.80;;
7527;SDS011;3805;49.006;8.514;2023-03-15T05:51:23;11.53;;;5.67;;
7527;SDS011;3805;49.006;8.514;2023-03-15T05:54:11;6.03;;;4.70;;
7527;SDS011;3805;49.006;8.514;2023-03-15T05:57:00;5.20;;;4.57;;
7527;SDS011;3805;49.006;8.514;2023-03-15T05:59:48;6.50;;;4.93;;
7527;SDS011;3805;49.006;8.514;2023-03-15T06:02:43;12.27;;;5.23;;
7527;SDS011;3805;49.006;8.514;2023-03-15T06:05:32;10.73;;;5.93;;
7527;SDS011;3805;49.006;8.514;2023-03-15T06:08:22;4.60;;;4.20;;
7527;SDS011;3805;49.006;8.514;2023-03-15T06:11:11;6.27;;;5.57;;
7527;SDS011;3805;49.006;8.514;2023-03-15T06:13:59;8.10;;;5.20;;
7527;SDS011;3805;49.006;8.514;2023-03-15T06:16:48;7.00;;;4.47;;
7527;SDS011;3805;49.006;8.514;2023-03-15T06:19:37;7.73;;;5.20;;
7527;SDS011;3805;49.006;8.514;2023-03-15T06:22:25;8.13;;;5.30;;
7527;SDS011;3805;49.006;8.514;2023-03-15T06:25:15;5.73;;;4.73;;
7527;SDS011;3805;49.006;8.514;2023-03-15T06:28:04;8.63;;;4.80;;
7527;SDS011;3805;49.006;8.514;2023-03-15T06:30:52;5.13;;;3.83;;
7527;SDS011;3805;49.006;8.514;2023-03-15T06:33:41;6.73;;;4.00;;
7527;SDS011;3805;49.006;8.514;2023-03-15T06:36:30;5.47;;;3.80;;
7527;SDS011;3805;49.006;8.514;2023-03-15T06:39:18;5.47;;;4.23;;
7527;SDS011;3805;49.006;8.514;2023-03-15T06:42:08;6.10;;;4.90;;
7527;SDS011;3805;49.006;8.514;2023-03-15T06:44:59;7.00;;;4.53;;
7527;SDS011;3805;49.006;8.514;2023-03-15T06:47:48;6.93;;;4.20;;
7527;SDS011;3805;49.006;8.514;2023-03-15T06:50:36;3.97;;;3.67;;
7527;SDS011;3805;49.006;8.514;2023-03-15T06:53:33;7.20;;;4.70;;
7527;SDS011;3805;49.006;8.514;2023-03-15T06:56:22;5.60;;;4.10;;
7527;SDS011;3805;49.006;8.514;2023-03-15T06:59:12;6.50;;;3.87;;
7527;SDS011;3805;49.006;8.514;2023-03-15T07:02:00;5.47;;;4.90;;
7527;SDS011;3805;49.006;8.514;2023-03-15T07:04:49;7.27;;;3.97;;
7527;SDS011;3805;49.006;8.514;2023-03-15T07:07:37;8.93;;;4.20;;
7527;SDS011;3805;49.006;8.514;2023-03-15T07:10:26;8.33;;;4.10;;
7527;SDS011;3805;49.006;8.514;2023-03-15T07:13:17;7.23;;;4.20;;
7527;SDS011;3805;49.006;8.514;2023-03-15T07:16:07;5.87;;;4.23;;
7527;SDS011;3805;49.006;8.514;2023-03-15T07:18:56;7.77;;;4.80;;
7527;SDS011;3805;49.006;8.514;2023-03-15T07:21:47;6.70;;;3.90;;
7527;SDS011;3805;49.006;8.514;2023-03-15T07:24:35;7.73;;;3.47;;
7527;SDS011;3805;49.006;8.514;2023-03-15T07:27:24;5.10;;;4.10;;
7527;SDS011;3805;49.006;8.514;2023-03-15T07:30:13;10.20;;;4.27;;
7527;SDS011;3805;49.006;8.514;2023-03-15T07:33:03;4.30;;;3.90;;
7527;SDS011;3805;49.006;8.514;2023-03-15T07:35:52;7.40;;;4.00;;
7527;SDS011;3805;49.006;8.514;2023-03-15T07:38:41;4.70;;;3.27;;
7527;SDS011;3805;49.006;8.514;2023-03-15T07:41:29;6.33;;;4.10;;
7527;SDS011;3805;49.006;8.514;2023-03-15T07:44:18;3.70;;;3.40;;
7527;SDS011;3805;49.006;8.514;2023-03-15T07:47:07;7.20;;;4.03;;
7527;SDS011;3805;49.006;8.514;2023-03-15T07:49:57;5.33;;;3.30;;
7527;SDS011;3805;49.006;8.514;2023-03-15T07:52:46;6.80;;;3.93;;
7527;SDS011;3805;49.006;8.514;2023-03-15T07:55:34;6.07;;;3.60;;
7527;SDS011;3805;49.006;8.514;2023-03-15T07:58:23;4.23;;;3.83;;
7527;SDS011;3805;49.006;8.514;2023-03-15T08:01:12;7.17;;;3.40;;
7527;SDS011;3805;49.006;8.514;2023-03-15T08:04:00;6.80;;;4.17;;
7527;SDS011;3805;49.006;8.514;2023-03-15T08:06:50;6.43;;;3.73;;
7527;SDS011;3805;49.006;8.514;2023-03-15T08:09:39;7.60;;;4.10;;
7527;SDS011;3805;49.006;8.514;2023-03-15T08:12:28;5.90;;;4.13;;
7527;SDS011;3805;49.006;8.514;2023-03-15T08:15:18;7.30;;;4.07;;
7527;SDS011;3805;49.006;8.514;2023-03-15T08:18:07;6.90;;;4.27;;
7527;SDS011;3805;49.006;8.514;2023-03-15T08:20:56;5.07;;;3.80;;
7527;SDS011;3805;49.006;8.514;2023-03-15T08:23:46;3.83;;;3.40;;
7527;SDS011;3805;49.006;8.514;2023-03-15T08:26:35;8.20;;;3.90;;
7527;SDS011;3805;49.006;8.514;2023-03-15T08:29:23;4.60;;;3.80;;
7527;SDS011;3805;49.006;8.514;2023-03-15T08:32:15;4.53;;;3.00;;
7527;SDS011;3805;49.006;8.514;2023-03-15T08:35:04;6.87;;;4.10;;
7527;SDS011;3805;49.006;8.514;2023-03-15T08:37:53;6.57;;;4.20;;
7527;SDS011;3805;49.006;8.514;2023-03-15T08:40:43;4.03;;;3.63;;
7527;SDS011;3805;49.006;8.514;2023-03-15T08:43:32;4.07;;;3.67;;
7527;SDS011;3805;49.006;8.514;2023-03-15T08:46:21;8.83;;;3.37;;
7527;SDS011;3805;49.006;8.514;2023-03-15T08:49:09;4.60;;;2.87;;
7527;SDS011;3805;49.006;8.514;2023-03-15T08:51:58;5.57;;;3.03;;
7527;SDS011;3805;49.006;8.514;2023-03-15T08:54:46;3.43;;;2.93;;
7527;SDS011;3805;49.006;8.514;2023-03-15T08:57:36;6.40;;;3.30;;
7527;SDS011;3805;49.006;8.514;2023-03-15T09:00:25;5.00;;;2.40;;
7527;SDS011;3805;49.006;8.514;2023-03-15T09:03:14;5.73;;;2.93;;
7527;SDS011;3805;49.006;8.514;2023-03-15T09:06:03;4.33;;;2.47;;
7527;SDS011;3805;49.006;8.514;2023-03-15T09:08:52;3.80;;;3.17;;
7527;SDS011;3805;49.006;8.514;2023-03-15T09:11:40;4.27;;;2.63;;
7527;SDS011;3805;49.006;8.514;2023-03-15T09:14:30;3.33;;;2.60;;
7527;SDS011;3805;49.006;8.514;2023-03-15T09:17:19;5.00;;;2.60;;
7527;SDS011;3805;49.006;8.514;2023-03-15T09:20:09;5.33;;;2.77;;
7527;SDS011;3805;49.006;8.514;2023-03-15T09:23:01;2.50;;;2.30;;
7527;SDS011;3805;49.006;8.514;2023-03-15T09:25:50;4.33;;;2.60;;
7527;SDS011;3805;49.006;8.514;2023-03-15T09:28:39;5.27;;;2.50;;
7527;SDS011;3805;49.006;8.514;2023-03-15T09:31:29;4.23;;;2.17;;
7527;SDS011;3805;49.006;8.514;2023-03-15T09:34:17;2.60;;;2.40;;
7527;SDS011;3805;49.006;8.514;2023-03-15T09:37:08;3.67;;;1.90;;
7527;SDS011;3805;49.006;8.514;2023-03-15T09:39:57;3.23;;;2.20;;
7527;SDS011;3805;49.006;8.514;2023-03-15T09:42:52;4.73;;;2.50;;
7527;SDS011;3805;49.006;8.514;2023-03-15T09:45:52;3.10;;;2.03;;
7527;SDS011;3805;49.006;8.514;2023-03-15T09:48:48;2.73;;;2.27;;
7527;SDS011;3805;49.006;8.514;2023-03-15T09:51:39;4.53;;;2.40;;
7527;SDS011;3805;49.006;8.514;2023-03-15T09:54:37;2.57;;;2.37;;
7527;SDS011;3805;49.006;8.514;2023-03-15T09:57:31;8.57;;;2.37;;
7527;SDS011;3805;49.006;8.514;2023-03-15T10:00:26;4.00;;;2.50;;
7527;SDS011;3805;49.006;8.514;2023-03-15T10:03:18;6.03;;;2.30;;
7527;SDS011;3805;49.006;8.514;2023-03-15T10:06:14;4.50;;;2.80;;
7527;SDS011;3805;49.006;8.514;2023-03-15T10:09:08;2.80;;;2.47;;
7527;SDS011;3805;49.006;8.514;2023-03-15T10:12:07;2.10;;;1.90;;
7527;SDS011;3805;49.006;8.514;2023-03-15T10:15:20;8.13;;;2.90;;
7527;SDS011;3805;49.006;8.514;2023-03-15T10:18:20;2.47;;;2.27;;
7527;SDS011;3805;49.006;8.514;2023-03-15T10:21:21;3.60;;;2.57;;
7527;SDS011;3805;49.006;8.514;2023-03-15T10:24:17;2.73;;;2.10;;
7527;SDS011;3805;49.006;8.514;2023-03-15T10:27:11;4.10;;;2.37;;
7527;SDS011;3805;49.006;8.514;2023-03-15T10:30:11;2.87;;;2.00;;
7527;SDS011;3805;49.006;8.514;2023-03-15T10:33:04;2.90;;;2.37;;
7527;SDS011;3805;49.006;8.514;2023-03-15T10:35:57;3.80;;;2.60;;
7527;SDS011;3805;49.006;8.514;2023-03-15T10:38:58;7.13;;;2.57;;
7527;SDS011;3805;49.006;8.514;2023-03-15T10:41:48;2.83;;;2.50;;
7527;SDS011;3805;49.006;8.514;2023-03-15T10:44:36;4.60;;;2.40;;
7527;SDS011;3805;49.006;8.514;2023-03-15T10:47:26;3.37;;;2.00;;
7527;SDS011;3805;49.006;8.514;2023-03-15T10:50:24;5.23;;;2.53;;
7527;SDS011;3805;49.006;8.514;2023-03-15T10:53:15;2.30;;;2.10;;
7527;SDS011;3805;49.006;8.514;2023-03-15T10:56:11;3.60;;;2.37;;
7527;SDS011;3805;49.006;8.514;2023-03-15T10:59:12;5.10;;;2.57;;
7527;SDS011;3805;49.006;8.514;2023-03-15T11:02:11;2.57;;;2.23;;
7527;SDS011;3805;49.006;8.514;2023-03-15T11:05:13;7.20;;;2.20;;
7527;SDS011;3805;49.006;8.514;2023-03-15T11:08:03;3.23;;;2.27;;
7527;SDS011;3805;49.006;8.514;2023-03-15T11:10:55;5.30;;;2.30;;
7527;SDS011;3805;49.006;8.514;2023-03-15T11:13:54;3.90;;;2.40;;
7527;SDS011;3805;49.006;8.514;2023-03-15T11:16:46;2.70;;;2.00;;
7527;SDS011;3805;49.006;8.514;2023-03-15T11:19:38;4.47;;;2.17;;
7527;SDS011;3805;49.006;8.514;2023-03-15T11:22:29;6.20;;;3.17;;
7527;SDS011;3805;49.006;8.514;2023-03-15T11:25:18;2.60;;;2.40;;
7527;SDS011;3805;49.006;8.514;2023-03-15T11:28:15;2.93;;;2.30;;
7527;SDS011;3805;49.006;8.514;2023-03-15T11:31:06;3.00;;;2.27;;
7527;SDS011;3805;49.006;8.514;2023-03-15T11:33:55;3.80;;;2.93;;
7527;SDS011;3805;49.006;8.514;2023-03-15T11:36:44;3.80;;;2.50;;
7527;SDS011;3805;49.006;8.514;2023-03-15T11:39:50;3.63;;;3.00;;
7527;SDS011;3805;49.006;8.514;2023-03-15T11:42:53;4.10;;;3.00;;
7527;SDS011;3805;49.006;8.514;2023-03-15T11:45:43;5.20;;;3.07;;
7527;SDS011;3805;49.006;8.514;2023-03-15T11:48:37;4.20;;;3.00;;
7527;SDS011;3805;49.006;8.514;2023-03-15T11:51:30;3.97;;;3.17;;
7527;SDS011;3805;49.006;8.514;2023-03-15T11:54:20;6.53;;;3.00;;
7527;SDS011;3805;49.006;8.514;2023-03-15T12:03:38;8.13;;;2.60;;
7527;SDS011;3805;49.006;8.514;2023-03-15T12:06:35;4.23;;;2.87;;
7527;SDS011;3805;49.006;8.514;2023-03-15T12:09:37;3.37;;;2.30;;
7527;SDS011;3805;49.006;8.514;2023-03-15T12:12:38;2.40;;;2.20;;
7527;SDS011;3805;49.006;8.514;2023-03-15T12:15:41;1.97;;;1.70;;
7527;SDS011;3805;49.006;8.514;2023-03-15T12:18:42;2.50;;;2.30;;
7527;SDS011;3805;49.006;8.514;2023-03-15T12:21:32;2.40;;;2.10;;
7527;SDS011;3805;49.006;8.514;2023-03-15T12:24:22;2.73;;;2.20;;
7527;SDS011;3805;49.006;8.514;2023-03-15T12:27:13;2.17;;;1.97;;
7527;SDS011;3805;49.006;8.514;2023-03-15T12:30:03;2.40;;;2.20;;
7527;SDS011;3805;49.006;8.514;2023-03-15T12:32:53;4.43;;;2.00;;
7527;SDS011;3805;49.006;8.514;2023-03-15T12:35:44;2.33;;;2.13;;
7527;SDS011;3805;49.006;8.514;2023-03-15T12:38:34;4.37;;;2.20;;
7527;SDS011;3805;49.006;8.514;2023-03-15T12:41:35;4.37;;;2.27;;
7527;SDS011;3805;49.006;8.514;2023-03-15T12:44:26;4.90;;;3.80;;
7527;SDS011;3805;49.006;8.514;2023-03-15T12:47:25;3.93;;;3.10;;
7527;SDS011;3805;49.006;8.514;2023-03-15T12:50:34;5.43;;;2.80;;
7527;SDS011;3805;49.006;8.514;2023-03-15T12:53:33;3.90;;;2.80;;
7527;SDS011;3805;49.006;8.514;2023-03-15T12:56:28;3.83;;;2.70;;
7527;SDS011;3805;49.006;8.514;2023-03-15T12:59:34;3.20;;;2.90;;
7527;SDS011;3805;49.006;8.514;2023-03-15T13:02:28;4.70;;;2.67;;
7527;SDS011;3805;49.006;8.514;2023-03-15T13:05:29;2.93;;;2.43;;
7527;SDS011;3805;49.006;8.514;2023-03-15T13:08:23;2.70;;;2.50;;
7527;SDS011;3805;49.006;8.514;2023-03-15T13:11:16;6.03;;;3.03;;
7527;SDS011;3805;49.006;8.514;2023-03-15T13:14:10;13.37;;;7.80;;
7527;SDS011;3805;49.006;8.514;2023-03-15T13:17:15;3.73;;;3.43;;
7527;SDS011;3805;49.006;8.514;2023-03-15T13:20:15;4.27;;;3.27;;
7527;SDS011;3805;49.006;8.514;2023-03-15T13:23:12;5.07;;;3.43;;
7527;SDS011;3805;49.006;8.514;2023-03-15T13:26:05;3.37;;;3.07;;
7527;SDS011;3805;49.006;8.514;2023-03-15T13:29:07;4.80;;;3.70;;
7527;SDS011;3805;49.006;8.514;2023-03-15T13:32:00;6.90;;;3.53;;
7527;SDS011;3805;49.006;8.514;2023-03-15T13:34:55;6.63;;;2.67;;
7527;SDS011;3805;49.006;8.514;2023-03-15T13:37:44;5.90;;;4.37;;
7527;SDS011;3805;49.006;8.514;2023-03-15T13:40:33;5.50;;;3.43;;
7527;SDS011;3805;49.006;8.514;2023-03-15T13:43:25;4.37;;;3.87;;
7527;SDS011;3805;49.006;8.514;2023-03-15T13:46:16;3.73;;;3.43;;
7527;SDS011;3805;49.006;8.514;2023-03-15T13:49:06;3.43;;;3.20;;
7527;SDS011;3805;49.006;8.514;2023-03-15T13:51:54;2.83;;;2.73;;
7527;SDS011;3805;49.006;8.514;2023-03-15T13:54:43;4.30;;;2.63;;
7527;SDS011;3805;49.006;8.514;2023-03-15T13:57:32;2.77;;;2.40;;
7527;SDS011;3805;49.006;8.514;2023-03-15T14:00:21;1.97;;;1.87;;
7527;SDS011;3805;49.006;8.514;2023-03-15T14:03:11;2.10;;;2.00;;
7527;SDS011;3805;49.006;8.514;2023-03-15T14:06:02;3.23;;;2.63;;
7527;SDS011;3805;49.006;8.514;2023-03-15T14:08:52;3.90;;;2.40;;
7527;SDS011;3805;49.006;8.514;2023-03-15T14:11:41;4.50;;;2.60;;
7527;SDS011;3805;49.006;8.514;2023-03-15T14:14:31;3.30;;;2.60;;
7527;SDS011;3805;49.006;8.514;2023-03-15T14:17:24;3.37;;;3.17;;
7527;SDS011;3805;49.006;8.514;2023-03-15T14:20:16;4.20;;;3.83;;
7527;SDS011;3805;49.006;8.514;2023-03-15T14:23:05;5.70;;;3.03;;
7527;SDS011;3805;49.006;8.514;2023-03-15T14:26:02;3.40;;;3.10;;
7527;SDS011;3805;49.006;8.514;2023-03-15T14:29:04;4.40;;;3.53;;
7527;SDS011;3805;49.006;8.514;2023-03-15T14:31:57;3.97;;;3.67;;
7527;SDS011;3805;49.006;8.514;2023-03-15T14:34:47;5.27;;;4.80;;
7527;SDS011;3805;49.006;8.514;2023-03-15T14:37:38;3.93;;;3.63;;
7527;SDS011;3805;49.006;8.514;2023-03-15T14:40:29;5.73;;;3.90;;
7527;SDS011;3805;49.006;8.514;2023-03-15T14:43:20;3.97;;;3.67;;
7527;SDS011;3805;49.006;8.514;2023-03-15T14:46:09;3.93;;;3.63;;
7527;SDS011;3805;49.006;8.514;2023-03-15T14:48:58;7.33;;;3.97;;
7527;SDS011;3805;49.006;8.514;2023-03-15T14:51:47;3.47;;;3.17;;
7527;SDS011;3805;49.006;8.514;2023-03-15T14:54:41;5.57;;;3.73;;
7527;SDS011;3805;49.006;8.514;2023-03-15T14:57:35;3.00;;;2.80;;
7527;SDS011;3805;49.006;8.514;2023-03-15T15:00:24;2.87;;;2.57;;
7527;SDS011;3805;49.006;8.514;2023-03-15T15:03:13;4.40;;;2.43;;
7527;SDS011;3805;49.006;8.514;2023-03-15T15:06:05;2.73;;;2.50;;
7527;SDS011;3805;49.006;8.514;2023-03-15T15:08:55;2.70;;;2.20;;
7527;SDS011;3805;49.006;8.514;2023-03-15T15:11:46;5.47;;;2.10;;
7527;SDS011;3805;49.006;8.514;2023-03-15T15:14:35;3.30;;;2.40;;
7527;SDS011;3805;49.006;8.514;2023-03-15T15:17:23;2.57;;;2.37;;
7527;SDS011;3805;49.006;8.514;2023-03-15T15:20:12;2.50;;;2.30;;
7527;SDS011;3805;49.006;8.514;2023-03-15T15:23:01;2.37;;;2.17;;
7527;SDS011;3805;49.006;8.514;2023-03-15T15:25:51;2.57;;;2.20;;
7527;SDS011;3805;49.006;8.514;2023-03-15T15:28:42;2.50;;;2.30;;
7527;SDS011;3805;49.006;8.514;2023-03-15T15:31:30;2.93;;;2.33;;
7527;SDS011;3805;49.006;8.514;2023-03-15T15:34:20;2.80;;;2.60;;
7527;SDS011;3805;49.006;8.514;2023-03-15T15:37:09;2.63;;;2.30;;
7527;SDS011;3805;49.006;8.514;2023-03-15T15:39:58;2.70;;;2.50;;
7527;SDS011;3805;49.006;8.514;2023-03-15T15:42:47;2.97;;;2.67;;
7527;SDS011;3805;49.006;8.514;2023-03-15T15:45:37;3.40;;;3.10;;
7527;SDS011;3805;49.006;8.514;2023-03-15T15:48:26;5.10;;;3.20;;
7527;SDS011;3805;49.006;8.514;2023-03-15T15:51:19;2.77;;;2.57;;
7527;SDS011;3805;49.006;8.514;2023-03-15T15:54:13;4.83;;;3.80;;
7527;SDS011;3805;49.006;8.514;2023-03-15T15:57:03;4.00;;;3.63;;
7527;SDS011;3805;49.006;8.514;2023-03-15T15:59:51;3.10;;;2.80;;
7527;SDS011;3805;49.006;8.514;2023-03-15T16:02:44;3.93;;;2.83;;
7527;SDS011;3805;49.006;8.514;2023-03-15T16:05:33;2.77;;;2.57;;
7527;SDS011;3805;49.006;8.514;2023-03-15T16:08:22;3.20;;;3.00;;
7527;SDS011;3805;49.006;8.514;2023-03-15T16:11:12;3.17;;;2.97;;
7527;SDS011;3805;49.006;8.514;2023-03-15T16:14:02;3.10;;;2.80;;
7527;SDS011;3805;49.006;8.514;2023-03-15T16:16:50;2.90;;;2.70;;
7527;SDS011;3805;49.006;8.514;2023-03-15T16:19:43;3.47;;;3.17;;
7527;SDS011;3805;49.006;8.514;2023-03-15T16:22:32;6.60;;;3.00;;
7527;SDS011;3805;49.006;8.514;2023-03-15T16:25:22;2.77;;;2.57;;
7527;SDS011;3805;49.006;8.514;2023-03-15T16:28:15;2.77;;;2.57;;
7527;SDS011;3805;49.006;8.514;2023-03-15T16:31:04;3.20;;;3.00;;
7527;SDS011;3805;49.006;8.514;2023-03-15T16:33:52;3.20;;;2.93;;
7527;SDS011;3805;49.006;8.514;2023-03-15T16:36:43;5.10;;;3.33;;
7527;SDS011;3805;49.006;8.514;2023-03-15T16:39:35;3.40;;;3.00;;
7527;SDS011;3805;49.006;8.514;2023-03-15T16:42:24;4.63;;;4.20;;
7527;SDS011;3805;49.006;8.514;2023-03-15T16:45:13;4.00;;;3.63;;
7527;SDS011;3805;49.006;8.514;2023-03-15T16:48:02;6.73;;;4.00;;
7527;SDS011;3805;49.006;8.514;2023-03-15T16:50:51;6.10;;;4.40;;
7527;SDS011;3805;49.006;8.514;2023-03-15T16:53:42;4.40;;;3.73;;
7527;SDS011;3805;49.006;8.514;2023-03-15T16:56:31;5.07;;;3.10;;
7527;SDS011;3805;49.006;8.514;2023-03-15T16:59:21;5.23;;;4.73;;
7527;SDS011;3805;49.006;8.514;2023-03-15T17:02:13;3.87;;;3.57;;
7527;SDS011;3805;49.006;8.514;2023-03-15T17:05:04;3.17;;;2.97;;
7527;SDS011;3805;49.006;8.514;2023-03-15T17:07:52;3.50;;;3.20;;
7527;SDS011;3805;49.006;8.514;2023-03-15T17:10:43;3.73;;;3.50;;
7527;SDS011;3805;49.006;8.514;2023-03-15T17:13:32;3.87;;;3.37;;
7527;SDS011;3805;49.006;8.514;2023-03-15T17:16:26;2.90;;;2.70;;
7527;SDS011;3805;49.006;8.514;2023-03-15T17:19:15;3.23;;;2.90;;
7527;SDS011;3805;49.006;8.514;2023-03-15T17:22:03;4.20;;;3.73;;
7527;SDS011;3805;49.006;8.514;2023-03-15T17:24:52;3.60;;;3.30;;
7527;SDS011;3805;49.006;8.514;2023-03-15T17:27:43;3.60;;;3.30;;
7527;SDS011;3805;49.006;8.514;2023-03-15T17:30:33;3.77;;;3.47;;
7527;SDS011;3805;49.006;8.514;2023-03-15T17:33:22;3.40;;;3.20;;
7527;SDS011;3805;49.006;8.514;2023-03-15T17:36:12;4.47;;;4.03;;
7527;SDS011;3805;49.006;8.514;2023-03-15T17:39:01;4.70;;;4.30;;
7527;SDS011;3805;49.006;8.514;2023-03-15T17:41:50;5.97;;;4.53;;
7527;SDS011;3805;49.006;8.514;2023-03-15T17:44:40;4.27;;;3.97;;
7527;SDS011;3805;49.006;8.514;2023-03-15T17:47:29;7.10;;;4.40;;